Time;durP1;ratioP1;P1;durP2;ratioP2;P2;SDS_P1;SDS_P2;PMS_P1;PMS_P2;Temp;Humidity;BMP_temperature;BMP_pressure;BME280_temperature;BME280_humidity;BME280_pressure;Samples;Min_cycle;Max_cycle;Signal;HPM_P1;HPM_P2
2022/11/14 00:00:54;;;;;;;8.47;5.03;;;;;;;4.71;nan;-23948.16;5012618;28;20230;-67
2022/11/14 00:03:20;;;;;;;11.90;4.87;;;;;;;4.26;nan;-23935.34;5012831;28;20667;-67
2022/11/14 00:05:46;;;;;;;12.30;5.33;;;;;;;4.54;nan;-23943.19;5012440;28;20203;-66
2022/11/14 00:08:19;;;;;;;6.83;4.27;;;;;;;4.73;nan;-23948.59;5012690;28;20187;-65
2022/11/14 00:10:46;;;;;;;8.67;4.60;;;;;;;4.43;nan;-23940.19;5043670;28;20690;-66
2022/11/14 00:13:13;;;;;;;6.03;3.67;;;;;;;4.62;nan;-23945.59;5011942;28;20555;-67
2022/11/14 00:15:38;;;;;;;7.13;4.77;;;;;;;4.49;nan;-23941.75;5012710;28;20287;-67
2022/11/14 00:18:03;;;;;;;9.23;4.57;;;;;;;4.32;nan;-23937.19;5012397;28;20203;-66
2022/11/14 00:20:29;;;;;;;7.33;5.03;;;;;;;4.53;nan;-23942.91;5012481;28;20168;-67
2022/11/14 00:22:54;;;;;;;10.80;4.97;;;;;;;4.33;nan;-23937.47;5012409;28;20172;-67
2022/11/14 00:25:20;;;;;;;8.00;4.27;;;;;;;4.84;nan;-23951.72;5012395;28;20220;-66
2022/11/14 00:27:45;;;;;;;10.23;5.73;;;;;;;4.46;nan;-23941.03;5012252;28;20220;-67
2022/11/14 00:30:10;;;;;;;10.40;4.27;;;;;;;4.65;nan;-23946.44;5012216;28;20731;-67
2022/11/14 00:32:43;;;;;;;6.90;4.73;;;;;;;4.88;nan;-23953.00;5012061;28;20182;-66
2022/11/14 00:35:09;;;;;;;6.30;4.57;;;;;;;4.49;nan;-23941.91;5012254;28;20251;-66
2022/11/14 00:37:34;;;;;;;7.60;4.40;;;;;;;4.52;nan;-23942.59;5043113;28;20302;-67
2022/11/14 00:39:59;;;;;;;12.10;4.60;;;;;;;4.77;nan;-23949.88;5012276;28;20176;-66
2022/11/14 00:42:25;;;;;;;13.40;5.47;;;;;;;4.88;nan;-23952.84;5011973;28;20611;-66
2022/11/14 00:44:50;;;;;;;10.30;6.17;;;;;;;4.67;nan;-23946.88;5011933;28;20172;-66
2022/11/14 00:47:16;;;;;;;8.20;5.10;;;;;;;4.96;nan;-23955.00;5012104;28;20183;-67
2022/11/14 00:49:41;;;;;;;7.63;4.70;;;;;;;4.83;nan;-23951.44;5011492;28;20223;-66
2022/11/14 00:52:07;;;;;;;7.97;5.43;;;;;;;4.28;nan;-23936.06;5012000;28;20176;-66
2022/11/14 00:54:32;;;;;;;7.10;4.43;;;;;;;4.78;nan;-23950.00;5011887;28;20192;-66
2022/11/14 00:56:57;;;;;;;8.87;4.97;;;;;;;4.81;nan;-23950.84;5011367;28;20187;-66
2022/11/14 00:59:23;;;;;;;11.67;6.00;;;;;;;4.20;nan;-23933.78;5010867;28;20168;-66
2022/11/14 01:01:48;;;;;;;15.40;5.20;;;;;;;4.72;nan;-23948.31;5011630;28;20259;-66
2022/11/14 01:04:14;;;;;;;8.57;4.70;;;;;;;4.76;nan;-23949.59;5011967;28;20262;-66
2022/11/14 01:06:39;;;;;;;7.93;5.10;;;;;;;4.75;nan;-23949.16;5011014;28;20208;-66
2022/11/14 01:09:05;;;;;;;6.73;4.63;;;;;;;4.66;nan;-23946.59;5011792;28;20180;-65
2022/11/14 01:11:30;;;;;;;8.03;5.53;;;;;;;4.70;nan;-23947.72;5011702;28;20203;-67
2022/11/14 01:13:55;;;;;;;12.07;5.13;;;;;;;4.58;nan;-23944.31;5011522;28;20180;-66
2022/11/14 01:16:21;;;;;;;6.37;4.63;;;;;;;4.62;nan;-23945.59;5011210;28;20265;-66
2022/11/14 01:18:46;;;;;;;7.27;4.77;;;;;;;4.44;nan;-23940.63;5011578;28;20230;-66
2022/11/14 01:21:13;;;;;;;5.53;4.03;;;;;;;4.22;nan;-23934.34;5011986;28;20184;-67
2022/11/14 01:23:39;;;;;;;7.83;3.83;;;;;;;4.15;nan;-23932.22;5011480;28;20172;-66
2022/11/14 01:26:09;;;;;;;10.33;4.47;;;;;;;4.44;nan;-23940.63;5011028;28;20293;-66
2022/11/14 01:28:35;;;;;;;5.83;4.07;;;;;;;4.35;nan;-23937.91;5011717;28;20199;-67
2022/11/14 01:31:08;;;;;;;8.73;5.10;;;;;;;4.07;nan;-23929.94;5011431;28;20172;-66
2022/11/14 01:33:34;;;;;;;5.50;3.50;;;;;;;4.26;nan;-23935.50;5011694;28;20234;-66
2022/11/14 01:35:59;;;;;;;10.73;5.37;;;;;;;4.12;nan;-23931.34;5011611;28;20172;-67
2022/11/14 01:38:25;;;;;;;12.67;5.23;;;;;;;4.39;nan;-23939.06;5010895;28;20180;-65
2022/11/14 01:40:50;;;;;;;9.97;4.27;;;;;;;3.97;nan;-23927.22;5011132;28;20196;-66
2022/11/14 01:43:15;;;;;;;7.80;4.90;;;;;;;4.35;nan;-23938.06;5011056;28;20177;-66
2022/11/14 01:46:00;;;;;;;6.23;4.10;;;;;;;4.50;nan;-23942.03;5011238;28;20203;-67
2022/11/14 01:48:52;;;;;;;7.70;4.53;;;;;;;4.52;nan;-23942.59;5017013;28;20690;-66
2022/11/14 01:51:32;;;;;;;17.40;5.77;;;;;;;4.34;nan;-23937.63;5011046;28;20168;-66
2022/11/14 01:54:04;;;;;;;8.27;4.70;;;;;;;3.84;nan;-23923.53;5011279;28;20632;-65
2022/11/14 01:56:50;;;;;;;7.27;3.43;;;;;;;4.10;nan;-23930.78;5010735;28;20176;-66
2022/11/14 01:59:21;;;;;;;6.37;4.03;;;;;;;3.96;nan;-23927.09;5010988;28;20160;-66
2022/11/14 02:01:49;;;;;;;8.17;4.80;;;;;;;3.77;nan;-23921.69;5011036;28;20174;-66
2022/11/14 02:04:26;;;;;;;8.20;4.50;;;;;;;3.68;nan;-23918.97;5010558;28;20189;-66
2022/11/14 02:06:57;;;;;;;5.97;3.90;;;;;;;3.46;nan;-23912.84;5010808;28;20211;-65
2022/11/14 02:09:23;;;;;;;9.30;3.57;;;;;;;3.35;nan;-23909.84;5011495;28;20549;-66
2022/11/14 02:11:50;;;;;;;5.40;4.00;;;;;;;3.40;nan;-23911.28;5013674;28;20254;-66
2022/11/14 02:14:16;;;;;;;6.83;4.50;;;;;;;3.32;nan;-23909.00;5014091;28;20168;-66
2022/11/14 02:16:42;;;;;;;6.33;3.70;;;;;;;2.92;nan;-23897.56;5014365;28;20608;-66
2022/11/14 02:19:08;;;;;;;5.83;3.97;;;;;;;3.36;nan;-23910.00;5014020;28;20203;-67
2022/11/14 02:21:34;;;;;;;4.43;3.20;;;;;;;2.99;nan;-23899.56;5013328;28;20177;-66
2022/11/14 02:23:59;;;;;;;5.70;3.90;;;;;;;2.99;nan;-23899.56;5015003;28;20180;-66
2022/11/14 02:26:25;;;;;;;6.07;3.47;;;;;;;3.04;nan;-23901.16;5014528;28;20224;-65
2022/11/14 02:28:50;;;;;;;5.57;3.07;;;;;;;3.34;nan;-23909.56;5014476;28;20204;-67
2022/11/14 02:31:16;;;;;;;8.83;4.43;;;;;;;3.18;nan;-23905.00;5013977;28;20176;-67
2022/11/14 02:34:15;;;;;;;6.27;4.00;;;;;;;3.41;nan;-23911.41;5014454;28;20180;-68
2022/11/14 02:36:40;;;;;;;6.53;3.97;;;;;;;3.51;nan;-23914.41;5014305;28;20191;-67
2022/11/14 02:39:07;;;;;;;4.27;3.57;;;;;;;3.46;nan;-23912.84;5013083;28;20192;-66
2022/11/14 02:41:32;;;;;;;8.17;4.63;;;;;;;3.13;nan;-23903.56;5018265;28;20198;-66
2022/11/14 02:43:58;;;;;;;4.80;3.33;;;;;;;3.45;nan;-23912.69;5020291;28;20570;-66
2022/11/14 02:46:23;;;;;;;5.47;3.90;;;;;;;3.03;nan;-23900.88;5029069;28;20198;-66
2022/11/14 02:48:49;;;;;;;5.33;3.67;;;;;;;3.46;nan;-23912.97;5033172;28;20261;-66
2022/11/14 02:51:14;;;;;;;4.40;3.10;;;;;;;3.48;nan;-23913.56;5013356;28;20215;-66
2022/11/14 02:53:39;;;;;;;4.50;3.63;;;;;;;3.50;nan;-23914.13;5013994;28;20172;-66
2022/11/14 02:56:05;;;;;;;4.87;3.70;;;;;;;3.47;nan;-23913.25;5045761;28;20180;-66
2022/11/14 02:58:30;;;;;;;6.47;4.03;;;;;;;3.04;nan;-23901.16;5014007;28;20172;-67
2022/11/14 03:00:56;;;;;;;3.93;3.53;;;;;;;3.24;nan;-23906.56;5013654;28;20176;-66
2022/11/14 03:03:21;;;;;;;9.97;4.10;;;;;;;3.08;nan;-23902.28;5013628;28;20229;-67
2022/11/14 03:05:47;;;;;;;6.20;3.70;;;;;;;3.07;nan;-23901.84;5013931;28;20204;-67
2022/11/14 03:08:12;;;;;;;5.90;3.63;;;;;;;3.31;nan;-23908.72;5013884;28;20180;-67
2022/11/14 03:10:37;;;;;;;5.80;3.43;;;;;;;3.34;nan;-23909.41;5013761;28;20599;-67
2022/11/14 03:13:03;;;;;;;7.73;4.27;;;;;;;3.39;nan;-23910.97;5013991;28;20176;-67
2022/11/14 03:15:28;;;;;;;6.43;4.30;;;;;;;2.95;nan;-23898.59;5013386;28;20322;-66
2022/11/14 03:17:53;;;;;;;3.53;2.90;;;;;;;3.27;nan;-23907.56;5013880;28;20212;-67
2022/11/14 03:20:19;;;;;;;5.43;3.47;;;;;;;3.28;nan;-23907.84;5013201;28;20187;-67
2022/11/14 03:22:44;;;;;;;4.93;3.57;;;;;;;3.27;nan;-23907.41;5012828;28;20226;-67
2022/11/14 03:25:09;;;;;;;5.30;3.93;;;;;;;2.98;nan;-23899.44;5013542;28;20663;-67
2022/11/14 03:27:35;;;;;;;3.90;3.50;;;;;;;3.07;nan;-23902.00;5013715;28;20215;-67
2022/11/14 03:30:00;;;;;;;5.77;3.50;;;;;;;2.72;nan;-23891.88;5012713;28;20703;-67
2022/11/14 03:32:25;;;;;;;4.27;3.57;;;;;;;2.78;nan;-23893.72;5013592;28;20184;-67
2022/11/14 03:34:51;;;;;;;5.30;3.63;;;;;;;2.85;nan;-23895.72;5015085;28;20283;-66
2022/11/14 03:37:16;;;;;;;3.47;3.17;;;;;;;2.95;nan;-23898.59;5016557;28;20167;-67
2022/11/14 03:39:42;;;;;;;5.97;3.27;;;;;;;3.21;nan;-23905.72;5012666;28;20184;-66
2022/11/14 03:42:08;;;;;;;4.70;3.23;;;;;;;3.17;nan;-23904.72;5012642;28;20199;-66
2022/11/14 03:44:34;;;;;;;5.97;3.53;;;;;;;3.23;nan;-23906.44;5012905;28;20171;-66
2022/11/14 03:46:59;;;;;;;8.10;3.60;;;;;;;2.85;nan;-23895.59;5013101;28;20218;-66
2022/11/14 03:49:24;;;;;;;11.53;3.90;;;;;;;2.92;nan;-23897.56;5012901;28;20180;-67
2022/11/14 03:51:50;;;;;;;4.77;3.70;;;;;;;3.21;nan;-23905.72;5013145;28;20180;-67
2022/11/14 03:54:15;;;;;;;7.30;4.17;;;;;;;3.21;nan;-23905.72;5013052;28;20188;-68
2022/11/14 03:56:40;;;;;;;4.60;3.27;;;;;;;3.19;nan;-23905.13;5012849;28;20172;-66
2022/11/14 03:59:06;;;;;;;4.67;3.50;;;;;;;3.12;nan;-23903.28;5012861;28;20258;-68
2022/11/14 04:01:31;;;;;;;5.93;3.60;;;;;;;2.88;nan;-23896.44;5012781;28;20183;-67
2022/11/14 04:03:56;;;;;;;5.77;3.93;;;;;;;2.87;nan;-23896.28;5012503;28;20172;-67
2022/11/14 04:06:22;;;;;;;8.43;3.57;;;;;;;3.07;nan;-23901.84;5044598;28;20215;-66
2022/11/14 04:08:47;;;;;;;8.23;4.17;;;;;;;2.85;nan;-23895.59;5016529;28;20655;-67
2022/11/14 04:11:13;;;;;;;7.47;3.97;;;;;;;2.87;nan;-23896.16;5029244;28;20194;-66
2022/11/14 04:13:38;;;;;;;4.53;3.20;;;;;;;3.17;nan;-23904.72;5015069;28;20207;-66
2022/11/14 04:16:07;;;;;;;3.60;3.13;;;;;;;3.15;nan;-23904.00;5017991;28;20534;-66
2022/11/14 04:18:32;;;;;;;4.33;3.60;;;;;;;3.11;nan;-23903.00;5017710;28;20195;-67
2022/11/14 04:20:58;;;;;;;9.27;3.83;;;;;;;2.77;nan;-23893.31;5016725;28;20176;-67
2022/11/14 04:23:23;;;;;;;2.93;2.60;;;;;;;3.06;nan;-23901.56;5017624;28;20273;-66
2022/11/14 04:25:48;;;;;;;5.20;4.03;;;;;;;3.04;nan;-23901.16;5016479;28;20208;-67
2022/11/14 04:28:14;;;;;;;4.83;3.77;;;;;;;2.83;nan;-23895.00;5017063;28;20261;-67
2022/11/14 04:30:40;;;;;;;4.83;2.83;;;;;;;2.95;nan;-23898.59;5017424;28;20556;-67
2022/11/14 04:33:05;;;;;;;4.67;4.13;;;;;;;2.76;nan;-23893.00;5015949;28;20677;-67
2022/11/14 04:35:31;;;;;;;10.37;3.33;;;;;;;2.76;nan;-23893.16;5016672;28;20183;-67
2022/11/14 04:37:56;;;;;;;5.33;3.73;;;;;;;2.74;nan;-23892.59;5017305;28;20175;-67
2022/11/14 04:40:21;;;;;;;5.17;3.93;;;;;;;2.74;nan;-23892.59;5015957;28;20175;-66
2022/11/14 04:42:47;;;;;;;7.00;4.37;;;;;;;2.66;nan;-23890.44;5015847;28;20180;-66
2022/11/14 04:45:12;;;;;;;7.03;3.47;;;;;;;2.72;nan;-23891.88;5016904;28;20214;-66
2022/11/14 04:47:40;;;;;;;9.03;3.90;;;;;;;3.00;nan;-23900.00;5016619;28;20816;-66
2022/11/14 04:50:06;;;;;;;10.77;3.77;;;;;;;2.82;nan;-23894.72;5015022;28;20191;-66
2022/11/14 04:52:31;;;;;;;5.17;3.83;;;;;;;3.07;nan;-23901.84;5016977;28;20241;-66
2022/11/14 04:54:57;;;;;;;4.80;3.73;;;;;;;2.38;nan;-23882.44;5016599;28;20623;-66
2022/11/14 04:57:22;;;;;;;7.77;3.83;;;;;;;3.07;nan;-23901.84;5015929;28;20704;-67
2022/11/14 04:59:48;;;;;;;5.57;3.13;;;;;;;2.61;nan;-23889.03;5015131;28;20191;-67
2022/11/14 05:02:13;;;;;;;4.27;3.30;;;;;;;2.60;nan;-23888.72;5017421;28;20677;-67
2022/11/14 05:04:39;;;;;;;4.20;3.50;;;;;;;2.93;nan;-23897.88;5017249;28;20234;-66
2022/11/14 05:07:04;;;;;;;5.33;4.20;;;;;;;2.99;nan;-23899.56;5018454;28;20203;-68
2022/11/14 05:09:29;;;;;;;6.67;3.77;;;;;;;2.56;nan;-23887.44;5026487;28;20674;-65
2022/11/14 05:11:55;;;;;;;5.70;3.70;;;;;;;2.95;nan;-23898.44;5018598;28;20188;-66
2022/11/14 05:14:20;;;;;;;5.20;3.13;;;;;;;2.88;nan;-23896.59;5013386;28;20168;-66
2022/11/14 05:16:45;;;;;;;5.00;3.70;;;;;;;2.57;nan;-23887.72;5029565;28;20203;-66
2022/11/14 05:19:11;;;;;;;6.60;3.23;;;;;;;2.91;nan;-23897.28;5022586;28;20195;-66
2022/11/14 05:21:36;;;;;;;6.63;3.73;;;;;;;2.95;nan;-23898.59;5010727;28;20179;-67
2022/11/14 05:24:02;;;;;;;6.53;4.10;;;;;;;2.77;nan;-23893.31;5021212;28;20179;-67
2022/11/14 05:26:27;;;;;;;7.70;3.53;;;;;;;2.85;nan;-23895.59;5012801;28;20238;-68
2022/11/14 05:28:53;;;;;;;7.07;4.00;;;;;;;2.94;nan;-23898.16;5030586;28;20182;-68
2022/11/14 05:31:18;;;;;;;4.47;3.70;;;;;;;2.66;nan;-23890.44;5023703;28;20203;-68
2022/11/14 05:33:45;;;;;;;9.67;5.43;;;;;;;2.80;nan;-23894.31;5010655;28;20164;-69
2022/11/14 05:36:16;;;;;;;9.43;3.30;;;;;;;2.67;nan;-23890.72;5010805;28;20176;-66
2022/11/14 05:38:41;;;;;;;5.27;3.27;;;;;;;2.99;nan;-23899.72;5011231;28;20172;-67
2022/11/14 05:41:18;;;;;;;5.77;3.97;;;;;;;2.48;nan;-23885.16;5010624;28;20195;-66
2022/11/14 05:43:44;;;;;;;5.17;3.83;;;;;;;2.83;nan;-23895.00;5010718;28;20163;-66
2022/11/14 05:46:12;;;;;;;5.20;3.57;;;;;;;2.65;nan;-23890.16;5014516;28;20196;-66
2022/11/14 05:48:38;;;;;;;7.17;4.27;;;;;;;2.67;nan;-23890.72;5012909;28;20663;-66
2022/11/14 05:51:05;;;;;;;5.13;3.37;;;;;;;2.39;nan;-23882.59;5013060;28;20180;-65
2022/11/14 05:53:35;;;;;;;3.40;2.93;;;;;;;2.65;nan;-23890.00;5013847;28;20204;-66
2022/11/14 05:56:03;;;;;;;5.70;3.07;;;;;;;2.49;nan;-23885.59;5014737;28;20222;-67
2022/11/14 05:58:30;;;;;;;5.13;2.53;;;;;;;2.65;nan;-23890.16;5014735;28;20654;-66
2022/11/14 06:01:14;;;;;;;4.57;3.70;;;;;;;2.50;nan;-23885.72;5013727;28;20227;-66
2022/11/14 06:03:42;;;;;;;6.37;3.83;;;;;;;2.60;nan;-23888.72;5014455;28;20172;-67
2022/11/14 06:06:09;;;;;;;4.67;3.90;;;;;;;3.05;nan;-23901.44;5014423;28;20207;-67
2022/11/14 06:08:35;;;;;;;3.60;2.73;;;;;;;3.05;nan;-23901.44;5014212;28;20178;-67
2022/11/14 06:11:06;;;;;;;4.13;3.30;;;;;;;3.35;nan;-23909.84;5014332;28;20168;-67
2022/11/14 06:13:33;;;;;;;4.00;2.93;;;;;;;3.28;nan;-23907.84;5013930;28;20248;-67
2022/11/14 06:16:03;;;;;;;3.33;2.97;;;;;;;3.46;nan;-23912.97;5013804;28;20697;-67
2022/11/14 06:18:31;;;;;;;3.40;3.17;;;;;;;3.46;nan;-23912.97;5014003;28;20172;-66
2022/11/14 06:21:18;;;;;;;3.90;3.40;;;;;;;3.47;nan;-23913.13;5014365;28;20266;-66
2022/11/14 06:23:43;;;;;;;6.10;3.53;;;;;;;3.77;nan;-23921.69;5014182;28;20200;-66
2022/11/14 06:26:35;;;;;;;5.33;3.93;;;;;;;4.05;nan;-23929.50;5013726;28;20745;-66
2022/11/14 06:29:01;;;;;;;3.50;3.03;;;;;;;4.08;nan;-23930.38;5013988;28;20164;-66
2022/11/14 06:31:26;;;;;;;3.27;2.70;;;;;;;3.67;nan;-23918.81;5014291;28;20171;-66
2022/11/14 06:33:52;;;;;;;7.47;3.83;;;;;;;3.96;nan;-23926.94;5017735;28;20263;-66
2022/11/14 06:36:18;;;;;;;4.83;3.27;;;;;;;3.94;nan;-23926.53;5030078;28;20261;-66
2022/11/14 06:38:43;;;;;;;6.57;4.40;;;;;;;4.08;nan;-23930.38;5031714;28;20614;-67
2022/11/14 06:41:18;;;;;;;11.20;4.80;;;;;;;4.47;nan;-23941.19;5021363;28;20282;-66
2022/11/14 06:43:45;;;;;;;3.90;3.50;;;;;;;4.14;nan;-23932.06;5013591;28;20178;-67
2022/11/14 06:46:14;;;;;;;5.03;4.20;;;;;;;4.49;nan;-23941.75;5031486;28;20293;-67
2022/11/14 06:48:40;;;;;;;7.10;3.77;;;;;;;4.69;nan;-23947.59;5033079;28;20175;-67
2022/11/14 06:51:05;;;;;;;6.57;3.43;;;;;;;4.64;nan;-23946.16;5032873;28;20652;-67
2022/11/14 06:53:32;;;;;;;7.83;5.00;;;;;;;4.37;nan;-23938.63;5032917;28;20198;-68
2022/11/14 06:56:06;;;;;;;4.87;3.23;;;;;;;4.40;nan;-23939.34;5025125;28;20184;-67
2022/11/14 06:58:37;;;;;;;5.17;4.07;;;;;;;4.50;nan;-23942.03;5015619;28;20184;-66
2022/11/14 07:01:14;;;;;;;6.93;4.03;;;;;;;4.87;nan;-23952.56;5032951;28;20686;-67
2022/11/14 07:03:41;;;;;;;6.10;3.73;;;;;;;5.23;nan;-23962.81;5024574;28;20188;-67
2022/11/14 07:06:07;;;;;;;8.70;4.37;;;;;;;5.42;nan;-23968.06;5013322;28;20327;-67
2022/11/14 07:08:33;;;;;;;5.23;4.53;;;;;;;5.59;nan;-23972.91;5012747;28;20184;-67
2022/11/14 07:11:09;;;;;;;8.67;4.83;;;;;;;5.55;nan;-23971.63;5013035;28;20187;-67
2022/11/14 07:13:35;;;;;;;5.83;4.00;;;;;;;5.86;nan;-23980.28;5013319;28;20174;-66
2022/11/14 07:16:02;;;;;;;5.73;3.83;;;;;;;5.54;nan;-23971.34;5012998;28;20239;-66
2022/11/14 07:18:31;;;;;;;8.03;4.23;;;;;;;5.20;nan;-23961.81;5012820;28;20172;-66
2022/11/14 07:20:59;;;;;;;5.57;4.07;;;;;;;5.40;nan;-23967.50;5012953;28;20621;-66
2022/11/14 07:23:24;;;;;;;4.37;3.97;;;;;;;5.37;nan;-23966.50;5013082;28;20255;-67
2022/11/14 07:25:50;;;;;;;3.83;3.07;;;;;;;5.49;nan;-23969.91;5012933;28;20282;-66
2022/11/14 07:28:15;;;;;;;6.00;3.27;;;;;;;5.68;nan;-23975.31;5013149;28;20232;-67
2022/11/14 07:30:41;;;;;;;17.43;3.43;;;;;;;5.33;nan;-23965.66;5012652;28;20251;-68
2022/11/14 07:33:06;;;;;;;7.17;2.90;;;;;;;5.26;nan;-23963.53;5012900;28;20180;-67
2022/11/14 07:35:32;;;;;;;7.00;4.47;;;;;;;5.53;nan;-23971.19;5012749;28;20180;-68
2022/11/14 07:38:01;;;;;;;7.30;3.93;;;;;;;5.72;nan;-23976.47;5012727;28;20169;-68
2022/11/14 07:40:27;;;;;;;3.93;3.43;;;;;;;5.76;nan;-23977.59;5012912;28;20160;-69
2022/11/14 07:42:59;;;;;;;4.63;3.10;;;;;;;6.09;nan;-23986.84;5012403;28;20230;-67
2022/11/14 07:45:26;;;;;;;6.00;3.50;;;;;;;6.58;nan;-24000.59;5012535;28;20192;-67
2022/11/14 07:47:56;;;;;;;4.30;3.43;;;;;;;6.57;nan;-24000.47;5012429;28;20219;-66
2022/11/14 07:50:22;;;;;;;4.17;3.77;;;;;;;6.61;nan;-24001.47;5011778;28;20171;-67
2022/11/14 07:52:52;;;;;;;5.10;3.83;;;;;;;6.85;nan;-24008.25;5012489;28;20234;-67
2022/11/14 07:55:18;;;;;;;6.53;3.53;;;;;;;6.89;nan;-24009.25;5012559;28;20180;-67
2022/11/14 07:57:44;;;;;;;6.93;3.97;;;;;;;7.16;nan;-24016.78;5012702;28;20631;-67
2022/11/14 08:00:10;;;;;;;6.07;4.43;;;;;;;7.20;nan;-24017.91;5012534;28;20184;-67
2022/11/14 08:02:36;;;;;;;9.23;4.53;;;;;;;6.88;nan;-24008.97;5011943;28;20191;-67
2022/11/14 08:05:01;;;;;;;9.17;4.37;;;;;;;6.99;nan;-24012.25;5011600;28;20168;-68
2022/11/14 08:07:26;;;;;;;11.23;5.03;;;;;;;7.41;nan;-24024.00;5011654;28;20191;-67
2022/11/14 08:09:52;;;;;;;8.17;4.47;;;;;;;7.55;nan;-24027.97;5012051;28;20690;-68
2022/11/14 08:12:17;;;;;;;7.97;4.53;;;;;;;7.69;nan;-24031.66;5014900;28;20329;-68
2022/11/14 08:14:43;;;;;;;10.40;4.37;;;;;;;7.57;nan;-24028.25;5020633;28;20187;-67
2022/11/14 08:17:08;;;;;;;8.07;4.87;;;;;;;7.93;nan;-24038.47;5021936;28;20210;-67
2022/11/14 08:19:33;;;;;;;7.30;4.13;;;;;;;8.02;nan;-24041.00;5032069;28;20179;-68
2022/11/14 08:21:59;;;;;;;8.37;4.80;;;;;;;8.14;nan;-24044.28;5016915;28;20558;-67
2022/11/14 08:24:24;;;;;;;7.80;4.40;;;;;;;8.20;nan;-24045.97;5011964;28;20168;-66
2022/11/14 08:26:50;;;;;;;9.10;5.60;;;;;;;8.45;nan;-24052.91;5010910;28;20226;-66
2022/11/14 08:29:15;;;;;;;5.57;4.50;;;;;;;8.53;nan;-24055.16;5011836;28;20191;-68
2022/11/14 08:31:40;;;;;;;7.72;4.90;;;;;;;8.67;nan;-24059.28;5011864;28;20642;-68
2022/11/14 08:34:06;;;;;;;10.60;4.13;;;;;;;8.22;nan;-24046.53;5011539;28;20176;-67
2022/11/14 08:36:31;;;;;;;10.60;4.88;;;;;;;8.37;nan;-24050.94;5012248;28;20182;-68
2022/11/14 08:38:57;;;;;;;5.35;3.78;;;;;;;8.55;nan;-24055.88;5011497;28;20237;-67
2022/11/14 08:41:22;;;;;;;10.40;5.18;;;;;;;8.28;nan;-24048.22;5011093;28;20540;-67
2022/11/14 08:43:48;;;;;;;8.32;4.32;;;;;;;8.72;nan;-24060.69;5011207;28;20200;-67
2022/11/14 08:46:13;;;;;;;7.50;4.88;;;;;;;8.86;nan;-24064.66;5022481;28;20716;-67
2022/11/14 08:48:38;;;;;;;8.15;4.68;;;;;;;8.70;nan;-24059.97;5017485;28;20225;-68
2022/11/14 08:51:05;;;;;;;9.38;4.65;;;;;;;9.30;nan;-24076.94;5030565;28;20176;-67
2022/11/14 08:53:31;;;;;;;10.45;4.93;;;;;;;9.49;nan;-24082.19;5020784;28;20572;-67
2022/11/14 08:55:56;;;;;;;7.70;4.07;;;;;;;9.75;nan;-24089.53;5019935;28;20176;-66
2022/11/14 08:58:21;;;;;;;8.00;4.40;;;;;;;9.40;nan;-24079.63;5019165;28;20171;-66
2022/11/14 09:00:47;;;;;;;10.45;4.30;;;;;;;9.76;nan;-24089.81;5030515;28;20592;-64
2022/11/14 09:03:13;;;;;;;12.02;4.78;;;;;;;9.67;nan;-24087.13;5017466;28;20667;-64
2022/11/14 09:05:39;;;;;;;10.43;5.18;;;;;;;9.68;nan;-24087.56;5011213;28;20738;-66
2022/11/14 09:08:05;;;;;;;7.15;4.82;;;;;;;9.69;nan;-24087.84;5011647;28;20259;-66
2022/11/14 09:10:31;;;;;;;6.63;4.45;;;;;;;9.58;nan;-24084.59;5011088;28;20562;-65
2022/11/14 09:13:00;;;;;;;9.05;5.45;;;;;;;9.39;nan;-24079.34;5011050;28;20171;-67
2022/11/14 09:15:29;;;;;;;8.70;4.45;;;;;;;9.27;nan;-24075.97;5011401;28;20176;-65
2022/11/14 09:17:56;;;;;;;9.60;5.78;;;;;;;9.60;nan;-24085.16;5011942;28;20251;-65
2022/11/14 09:20:23;;;;;;;10.20;4.63;;;;;;;10.18;nan;-24101.53;5025895;28;20671;-65
2022/11/14 09:22:51;;;;;;;11.50;5.05;;;;;;;9.88;nan;-24093.06;5022622;28;20556;-65
2022/11/14 09:25:16;;;;;;;7.68;4.95;;;;;;;10.24;nan;-24103.09;5031256;28;20174;-65
2022/11/14 09:27:42;;;;;;;12.10;5.50;;;;;;;10.17;nan;-24101.25;5015746;28;20571;-65
2022/11/14 09:30:09;;;;;;;10.55;6.18;;;;;;;10.41;nan;-24107.75;5019531;28;20194;-66
2022/11/14 09:32:34;;;;;;;9.75;5.55;;;;;;;10.71;nan;-24116.22;5035069;28;20171;-65
2022/11/14 09:35:00;;;;;;;12.23;5.70;;;;;;;10.32;nan;-24105.34;5034786;28;20179;-64
2022/11/14 09:37:25;;;;;;;6.97;4.68;;;;;;;10.73;nan;-24116.78;5035015;28;20575;-65
2022/11/14 09:39:50;;;;;;;9.63;5.00;;;;;;;10.42;nan;-24108.16;5034642;28;20257;-65
2022/11/14 09:42:37;;;;;;;8.73;5.45;;;;;;;10.96;nan;-24123.25;5034041;28;20212;-65
2022/11/14 09:45:09;;;;;;;8.95;4.70;;;;;;;10.51;nan;-24110.56;5033686;28;20254;-64
2022/11/14 09:47:43;;;;;;;8.05;4.68;;;;;;;10.63;nan;-24114.09;5034372;28;20175;-67
2022/11/14 09:50:18;;;;;;;10.52;4.88;;;;;;;10.91;nan;-24121.72;5034517;28;20198;-67
2022/11/14 09:52:57;;;;;;;6.78;4.78;;;;;;;11.04;nan;-24125.38;5034108;28;20246;-66
2022/11/14 09:55:27;;;;;;;10.25;4.88;;;;;;;11.12;nan;-24127.63;5034048;28;20182;-65
2022/11/14 09:57:54;;;;;;;9.00;5.05;;;;;;;11.33;nan;-24133.41;5034288;28;20180;-65
2022/11/14 10:00:22;;;;;;;6.60;4.70;;;;;;;11.06;nan;-24125.94;5034201;28;20270;-64
2022/11/14 10:03:23;;;;;;;12.07;5.60;;;;;;;11.34;nan;-24133.84;5033926;28;20179;-64
2022/11/14 10:06:08;;;;;;;6.53;4.75;;;;;;;11.41;nan;-24135.81;5033395;28;20203;-66
2022/11/14 10:08:50;;;;;;;8.23;5.07;;;;;;;11.01;nan;-24124.69;5034150;28;20190;-66
2022/11/14 10:11:22;;;;;;;10.18;6.40;;;;;;;11.74;nan;-24144.84;5033670;28;20176;-66
2022/11/14 10:14:20;;;;;;;10.55;5.35;;;;;;;11.89;nan;-24149.06;5034221;28;20168;-66
2022/11/14 10:17:14;;;;;;;7.65;4.88;;;;;;;11.73;nan;-24144.69;5022376;28;20206;-67
2022/11/14 10:20:08;;;;;;;12.90;5.47;;;;;;;11.22;nan;-24130.31;5023843;28;20191;-67
2022/11/14 10:22:36;;;;;;;11.40;5.20;;;;;;;11.69;nan;-24143.41;5034673;28;20657;-65
2022/11/14 10:25:28;;;;;;;9.23;5.03;;;;;;;11.80;nan;-24146.53;5034127;28;20182;-65
2022/11/14 10:28:11;;;;;;;11.02;5.28;;;;;;;12.03;nan;-24153.00;5023044;28;20621;-67
2022/11/14 10:30:48;;;;;;;9.05;4.78;;;;;;;12.15;nan;-24156.25;5033511;28;20543;-65
2022/11/14 10:33:16;;;;;;;11.80;5.75;;;;;;;12.49;nan;-24165.66;5034335;28;20175;-66
2022/11/14 10:35:44;;;;;;;11.95;5.50;;;;;;;12.14;nan;-24155.97;5033885;28;20179;-66
2022/11/14 10:38:40;;;;;;;10.80;5.18;;;;;;;11.93;nan;-24150.19;5033409;28;20167;-65
2022/11/14 10:41:08;;;;;;;11.20;5.32;;;;;;;11.77;nan;-24145.69;5032449;28;20285;-66
2022/11/14 10:43:42;;;;;;;9.60;5.85;;;;;;;12.31;nan;-24160.88;5033789;28;20179;-65
2022/11/14 10:46:08;;;;;;;8.07;5.25;;;;;;;12.47;nan;-24165.25;5033662;28;20191;-65
2022/11/14 10:48:46;;;;;;;11.15;5.60;;;;;;;12.54;nan;-24167.06;5033882;28;20179;-66
2022/11/14 10:51:23;;;;;;;13.55;5.88;;;;;;;12.77;nan;-24173.53;5033371;28;20175;-65
2022/11/14 10:54:01;;;;;;;10.90;5.88;;;;;;;12.47;nan;-24165.09;5033343;28;20160;-65
2022/11/14 10:56:26;;;;;;;17.88;6.60;;;;;;;12.11;nan;-24155.13;5033396;28;20177;-66
2022/11/14 10:58:52;;;;;;;20.25;7.30;;;;;;;12.47;nan;-24165.09;5033588;28;20160;-66
2022/11/14 11:01:42;;;;;;;11.80;6.40;;;;;;;12.81;nan;-24174.81;5033587;28;20207;-67
2022/11/14 11:04:25;;;;;;;14.25;6.85;;;;;;;13.14;nan;-24183.94;5033678;28;20179;-65
2022/11/14 11:06:54;;;;;;;13.90;6.10;;;;;;;12.71;nan;-24171.84;5032753;28;20718;-65
2022/11/14 11:12:13;;;;;;;12.75;6.22;;;;;;;12.90;nan;-24177.19;5021399;28;20700;-66
2022/11/14 11:14:39;;;;;;;14.15;5.82;;;;;;;12.89;nan;-24176.91;5033334;28;20171;-66
2022/11/14 11:17:10;;;;;;;12.65;6.00;;;;;;;12.89;nan;-24176.91;5019636;28;20180;-65
2022/11/14 11:19:36;;;;;;;15.02;6.45;;;;;;;12.65;nan;-24170.31;5013553;28;20209;-65
2022/11/14 11:22:01;;;;;;;11.82;6.30;;;;;;;12.96;nan;-24178.75;5013275;28;20582;-65
2022/11/14 11:24:35;;;;;;;10.55;5.80;;;;;;;13.00;nan;-24179.88;5013018;28;20168;-68
2022/11/14 11:27:21;;;;;;;10.75;6.18;;;;;;;13.10;nan;-24182.69;5012812;28;20328;-65
2022/11/14 11:29:49;;;;;;;12.07;5.97;;;;;;;13.03;nan;-24180.84;5012951;28;20168;-66
2022/11/14 11:32:27;;;;;;;13.15;5.60;;;;;;;12.94;nan;-24178.31;5013232;28;20187;-66
2022/11/14 11:34:53;;;;;;;11.52;5.68;;;;;;;12.86;nan;-24176.06;5013315;28;20179;-65
2022/11/14 11:37:23;;;;;;;9.32;5.03;;;;;;;13.17;nan;-24184.66;5045239;28;20580;-66
2022/11/14 11:39:52;;;;;;;11.88;5.82;;;;;;;13.03;nan;-24180.72;5013168;28;20538;-66
2022/11/14 11:42:38;;;;;;;11.93;5.32;;;;;;;13.39;nan;-24190.69;5012239;28;20191;-65
2022/11/14 11:45:11;;;;;;;13.80;5.90;;;;;;;13.64;nan;-24197.72;5011889;28;20180;-66
2022/11/14 11:47:40;;;;;;;12.63;6.13;;;;;;;13.66;nan;-24198.41;5012543;28;20168;-66
2022/11/14 11:50:14;;;;;;;8.70;4.60;;;;;;;13.96;nan;-24206.56;5012207;28;20191;-65
2022/11/14 11:52:48;;;;;;;12.13;5.90;;;;;;;13.47;nan;-24192.94;5013008;28;20630;-66
2022/11/14 11:55:19;;;;;;;10.63;5.28;;;;;;;14.09;nan;-24210.34;5013191;28;20640;-66